FYLZ/LUD METAR and TAF weather

Enter ICAO airport designator
Station Type Date Time Source
FYLZ METAR 2021/05/12 17:00 UTC NOAA

FYLZ 121700Z AUTO 20007KT //// // ////// 26/03 Q1014


Station Type Date Time Source
FYLZ Decoded METAR 2021/05/12 17:00 UTC NOAA

Luderitz / Diaz Point, Namibia (FYLZ) 26-41S 015-15E
May 12, 2021 - 01:00 PM EDT / 2021.05.12 1700 UTC
Wind: from the SSW (200 degrees) at 8 MPH (7 KT):0
Temperature: 78 F (26 C)
Dew Point: 37 F (3 C)
Relative Humidity: 22%
Pressure (altimeter): 29.94 in. Hg (1014 hPa)
ob: FYLZ 121700Z AUTO 20007KT //// // ////// 26/03 Q1014
cycle: 17

Station Type Date Time Source
FYLZ TAF 2014/11/15 15:19 UTC NOAA

TAF FYLZ 151400Z 1515/1524 18015G28KT CAVOK
BECMG 1518/1520 16020KT

Example: see airport list